createdAt,value
2023-05-06T00:00:39.702Z,83.33
2023-05-06T00:03:06.481Z,81.88
2023-05-06T00:05:33.216Z,81.01
2023-05-06T00:07:59.934Z,81.41
2023-05-06T00:10:27.065Z,81.48
2023-05-06T00:12:53.750Z,81.87
2023-05-06T00:15:20.441Z,82.22
2023-05-06T00:17:47.199Z,82.74
2023-05-06T00:20:14.970Z,83.34
2023-05-06T00:22:41.704Z,83.54
2023-05-06T00:25:09.053Z,83.89
2023-05-06T00:27:35.813Z,84.42
2023-05-06T00:30:02.599Z,83.68
2023-05-06T00:32:31.034Z,83.89
2023-05-06T00:34:57.768Z,83.13
2023-05-06T00:37:24.460Z,82.95
2023-05-06T00:39:51.106Z,82.53
2023-05-06T00:42:17.902Z,82.70
2023-05-06T00:44:44.650Z,83.19
2023-05-06T00:47:11.777Z,83.89
2023-05-06T00:49:38.641Z,83.17
2023-05-06T00:52:05.727Z,80.82
2023-05-06T00:54:32.514Z,81.62
2023-05-06T00:56:59.365Z,80.81
2023-05-06T00:59:26.088Z,80.36
2023-05-06T01:01:53.891Z,80.94
2023-05-06T01:04:22.476Z,80.98
2023-05-06T01:06:59.212Z,82.40
2023-05-06T01:09:31.914Z,82.80
2023-05-06T01:12:06.890Z,83.17
2023-05-06T01:14:49.074Z,80.10
2023-05-06T01:17:18.760Z,80.27
2023-05-06T01:19:49.075Z,83.38
2023-05-06T01:22:16.684Z,83.47
2023-05-06T01:24:45.159Z,82.83
2023-05-06T01:27:13.701Z,83.75
2023-05-06T01:29:45.355Z,84.65
2023-05-06T01:32:45.126Z,84.66
2023-05-06T01:35:32.735Z,86.30
2023-05-06T01:38:27.563Z,84.83
2023-05-06T01:40:57.805Z,86.26
2023-05-06T01:43:28.289Z,86.97
2023-05-06T01:45:56.190Z,87.01
2023-05-06T01:48:28.900Z,87.08
2023-05-06T01:50:55.763Z,87.19
2023-05-06T01:53:22.462Z,87.19
2023-05-06T01:55:49.256Z,87.32
2023-05-06T01:58:16.946Z,87.42
2023-05-06T02:00:43.635Z,87.42
2023-05-06T02:03:11.929Z,87.42
2023-05-06T02:05:38.813Z,87.66
2023-05-06T02:08:05.754Z,85.33
2023-05-06T02:10:32.708Z,86.38
2023-05-06T02:13:04.601Z,86.91
2023-05-06T02:15:31.444Z,87.13
2023-05-06T02:17:59.954Z,85.10
2023-05-06T02:20:26.976Z,85.43
2023-05-06T02:23:13.548Z,87.16
2023-05-06T02:25:40.263Z,87.48
2023-05-06T02:28:08.195Z,85.57
2023-05-06T02:30:35.307Z,85.80
2023-05-06T02:33:02.762Z,85.24
2023-05-06T02:35:29.429Z,85.43
2023-05-06T02:37:56.106Z,86.34
2023-05-06T02:40:22.991Z,87.14
2023-05-06T02:42:49.969Z,87.54
2023-05-06T02:45:34.983Z,87.76
2023-05-06T02:48:19.958Z,88.12
2023-05-06T02:50:46.668Z,89.19
2023-05-06T02:53:13.424Z,89.11
2023-05-06T02:55:40.294Z,89.56
2023-05-06T02:58:06.965Z,89.61
2023-05-06T03:00:33.693Z,88.52
2023-05-06T03:03:00.883Z,91.10
2023-05-06T03:05:27.631Z,90.67
2023-05-06T03:07:55.241Z,90.24
2023-05-06T03:10:21.950Z,89.58
2023-05-06T03:12:48.968Z,88.89
2023-05-06T03:15:15.662Z,88.96
2023-05-06T03:17:42.572Z,87.69
2023-05-06T03:20:10.097Z,87.31
2023-05-06T03:22:41.158Z,88.05
2023-05-06T03:25:08.930Z,88.50
2023-05-06T03:27:38.452Z,88.10
2023-05-06T03:30:12.251Z,88.35
2023-05-06T03:32:39.454Z,88.52
2023-05-06T03:35:11.510Z,88.02
2023-05-06T03:37:41.336Z,87.75
2023-05-06T03:40:09.532Z,86.57
2023-05-06T03:42:36.354Z,85.90
2023-05-06T03:45:04.998Z,87.21
2023-05-06T03:47:33.354Z,87.66
2023-05-06T03:50:01.933Z,88.42
2023-05-06T03:52:31.211Z,88.67
2023-05-06T03:54:58.722Z,88.80
2023-05-06T03:57:27.616Z,88.03
2023-05-06T03:59:54.518Z,88.08
2023-05-06T04:02:21.381Z,88.10
2023-05-06T04:04:48.368Z,88.03
2023-05-06T04:07:15.084Z,87.60
2023-05-06T04:09:41.803Z,87.54
2023-05-06T04:12:08.982Z,86.80
2023-05-06T04:14:36.809Z,86.52
2023-05-06T04:17:04.292Z,87.74
2023-05-06T04:19:32.116Z,87.38
2023-05-06T04:21:58.925Z,87.59
2023-05-06T04:24:28.523Z,87.66
2023-05-06T04:26:56.120Z,87.93
2023-05-06T04:29:23.521Z,88.50
2023-05-06T04:31:58.277Z,88.00
2023-05-06T04:34:28.069Z,88.30
2023-05-06T04:36:58.244Z,87.84
2023-05-06T04:39:32.113Z,88.45
2023-05-06T04:41:59.204Z,88.34
2023-05-06T04:44:34.099Z,88.16
2023-05-06T04:47:02.568Z,88.16
2023-05-06T04:49:29.686Z,88.57
2023-05-06T04:51:57.066Z,88.82
2023-05-06T04:54:24.934Z,89.56
2023-05-06T04:56:51.776Z,89.66
2023-05-06T04:59:19.824Z,89.50
2023-05-06T05:01:47.284Z,88.93
2023-05-06T05:04:14.081Z,87.98
2023-05-06T05:06:41.026Z,86.52
2023-05-06T05:09:08.812Z,86.36
2023-05-06T05:11:38.282Z,85.41
2023-05-06T05:14:05.316Z,85.02
2023-05-06T05:16:32.440Z,86.22
2023-05-06T05:19:03.018Z,84.71
2023-05-06T05:21:32.801Z,83.71
2023-05-06T05:23:59.788Z,82.93
2023-05-06T05:26:26.826Z,83.29
2023-05-06T05:28:55.113Z,82.98
2023-05-06T05:31:22.441Z,81.48
2023-05-06T05:33:50.236Z,81.27
2023-05-06T05:36:20.966Z,80.54
2023-05-06T05:38:50.391Z,79.47
2023-05-06T05:41:18.277Z,79.85
2023-05-06T05:43:45.829Z,80.83
2023-05-06T05:46:14.298Z,80.67
2023-05-06T05:48:43.688Z,80.97
2023-05-06T05:51:11.405Z,80.50
2023-05-06T05:53:39.068Z,77.66
2023-05-06T05:56:07.391Z,79.09
2023-05-06T05:58:34.551Z,79.28
2023-05-06T06:01:01.701Z,78.70
2023-05-06T06:03:29.196Z,77.81
2023-05-06T06:05:56.344Z,77.66
2023-05-06T06:08:26.378Z,78.38
2023-05-06T06:10:53.432Z,77.25
2023-05-06T06:13:26.599Z,75.52
2023-05-06T06:15:56.491Z,74.35
2023-05-06T06:18:24.114Z,73.02
2023-05-06T06:20:53.101Z,72.87
2023-05-06T06:23:20.986Z,72.47
2023-05-06T06:25:48.239Z,72.63
2023-05-06T06:28:15.923Z,71.88
2023-05-06T06:30:44.053Z,70.81
2023-05-06T06:33:11.600Z,70.94
2023-05-06T06:35:39.764Z,69.86
2023-05-06T06:38:06.504Z,69.83
2023-05-06T06:40:35.375Z,70.88
2023-05-06T06:43:02.219Z,71.90
2023-05-06T06:45:49.071Z,71.16
2023-05-06T06:48:16.411Z,71.68
2023-05-06T06:50:43.244Z,71.52
2023-05-06T06:53:10.799Z,71.43
2023-05-06T06:55:37.604Z,71.77
2023-05-06T06:58:04.393Z,72.62
2023-05-06T07:00:31.083Z,73.01
2023-05-06T07:02:57.831Z,73.39
2023-05-06T07:05:26.792Z,72.87
2023-05-06T07:07:54.336Z,71.93
2023-05-06T07:10:22.093Z,71.89
2023-05-06T07:12:48.855Z,71.31
2023-05-06T07:15:15.708Z,70.04
2023-05-06T07:17:42.794Z,69.81
2023-05-06T07:20:10.248Z,69.63
2023-05-06T07:22:37.072Z,70.43
2023-05-06T07:25:03.970Z,71.07
2023-05-06T07:27:30.989Z,71.70
2023-05-06T07:29:57.857Z,71.30
2023-05-06T07:32:24.743Z,70.96
2023-05-06T07:34:51.499Z,69.74
2023-05-06T07:37:18.138Z,69.37
2023-05-06T07:39:44.948Z,66.57
2023-05-06T07:42:13.149Z,67.44
2023-05-06T07:44:40.322Z,66.60
2023-05-06T07:47:07.172Z,65.78
2023-05-06T07:49:35.147Z,65.48
2023-05-06T07:52:03.445Z,65.91
2023-05-06T07:54:31.584Z,65.96
2023-05-06T07:56:58.428Z,65.55
2023-05-06T07:59:25.380Z,66.61
2023-05-06T08:01:52.524Z,64.98
2023-05-06T08:04:19.301Z,65.20
2023-05-06T08:06:46.035Z,63.44
2023-05-06T08:09:17.005Z,61.92
2023-05-06T08:11:49.974Z,60.87
2023-05-06T08:14:16.714Z,59.94
2023-05-06T08:16:43.663Z,59.32
2023-05-06T08:19:10.619Z,60.59
2023-05-06T08:21:37.401Z,59.94
2023-05-06T08:24:04.187Z,59.83
2023-05-06T08:26:30.945Z,58.85
2023-05-06T08:28:58.784Z,59.71
2023-05-06T08:31:25.562Z,58.73
2023-05-06T08:33:54.432Z,58.05
2023-05-06T08:36:22.141Z,57.96
2023-05-06T08:38:50.743Z,58.33
2023-05-06T08:41:19.435Z,59.09
2023-05-06T08:43:48.437Z,57.32
2023-05-06T08:46:15.563Z,58.39
2023-05-06T08:48:42.399Z,57.93
2023-05-06T08:51:09.700Z,56.75
2023-05-06T08:53:36.990Z,56.02
2023-05-06T08:56:08.546Z,56.64
2023-05-06T08:58:38.451Z,57.22
2023-05-06T09:01:05.446Z,56.48
2023-05-06T09:03:32.413Z,57.00
2023-05-06T09:05:59.370Z,56.21
2023-05-06T09:08:26.136Z,57.17
2023-05-06T09:10:52.926Z,59.61
2023-05-06T09:13:19.909Z,58.94
2023-05-06T09:15:49.032Z,58.53
2023-05-06T09:18:17.009Z,57.45
2023-05-06T09:20:48.779Z,57.35
2023-05-06T09:23:17.782Z,57.12
2023-05-06T09:25:46.172Z,57.64
2023-05-06T09:28:14.033Z,55.56
2023-05-06T09:30:44.968Z,53.12
2023-05-06T09:33:12.292Z,53.00
2023-05-06T09:35:41.116Z,50.94
2023-05-06T09:38:08.595Z,49.54
2023-05-06T09:40:36.799Z,49.16
2023-05-06T09:43:04.503Z,51.25
2023-05-06T09:45:31.584Z,50.06
2023-05-06T09:47:58.840Z,50.19
2023-05-06T09:50:26.360Z,49.96
2023-05-06T09:52:55.325Z,49.38
2023-05-06T09:55:23.433Z,47.62
2023-05-06T09:57:50.521Z,47.63
2023-05-06T10:00:17.561Z,48.15
2023-05-06T10:02:45.923Z,49.85
2023-05-06T10:05:14.041Z,49.69
2023-05-06T10:07:44.217Z,49.73
2023-05-06T10:10:12.112Z,50.91
2023-05-06T10:12:39.034Z,50.54
2023-05-06T10:15:06.498Z,49.69
2023-05-06T10:17:35.593Z,49.99
2023-05-06T10:20:04.636Z,50.50
2023-05-06T10:22:39.909Z,49.79
2023-05-06T10:25:39.581Z,50.20
2023-05-06T10:28:10.529Z,49.27
2023-05-06T10:30:44.995Z,50.52
2023-05-06T10:33:12.277Z,49.58
2023-05-06T10:35:42.079Z,48.85
2023-05-06T10:38:36.251Z,48.42
2023-05-06T10:41:03.848Z,48.88
2023-05-06T10:43:32.781Z,49.10
2023-05-06T10:46:06.665Z,48.49
2023-05-06T10:48:34.002Z,47.50
2023-05-06T10:51:16.411Z,46.69
2023-05-06T10:54:02.745Z,46.44
2023-05-06T10:56:34.686Z,47.24
2023-05-06T10:59:05.684Z,48.12
2023-05-06T11:01:32.519Z,48.07
2023-05-06T11:04:05.110Z,48.12
2023-05-06T11:06:33.538Z,46.25
2023-05-06T11:09:01.768Z,46.06
2023-05-06T11:11:51.753Z,46.07
2023-05-06T11:14:31.837Z,45.79
2023-05-06T11:17:01.394Z,46.10
2023-05-06T11:19:33.553Z,47.30
2023-05-06T11:22:01.921Z,47.37
2023-05-06T11:24:39.683Z,46.97
2023-05-06T11:27:07.151Z,47.34
2023-05-06T11:29:34.122Z,45.69
2023-05-06T11:32:00.929Z,46.34
2023-05-06T11:34:29.918Z,46.39
2023-05-06T11:36:58.714Z,46.72
2023-05-06T11:39:30.314Z,46.90
2023-05-06T11:42:02.285Z,46.45
2023-05-06T11:44:34.267Z,45.68
2023-05-06T11:47:04.532Z,46.01
2023-05-06T11:49:42.292Z,45.77
2023-05-06T11:52:10.943Z,46.13
2023-05-06T11:54:42.547Z,45.32
2023-05-06T11:57:09.770Z,43.96
2023-05-06T11:59:39.553Z,44.21
2023-05-06T12:02:08.857Z,45.11
2023-05-06T12:04:41.503Z,44.62
2023-05-06T12:07:10.279Z,45.44
2023-05-06T12:09:39.330Z,44.73
2023-05-06T12:12:08.329Z,42.83
2023-05-06T12:14:36.993Z,42.45
2023-05-06T12:17:04.888Z,43.43
2023-05-06T12:19:32.271Z,44.37
2023-05-06T12:22:21.903Z,42.94
2023-05-06T12:24:49.575Z,42.67
2023-05-06T12:27:35.884Z,43.47
2023-05-06T12:30:05.033Z,43.17
2023-05-06T12:32:34.583Z,43.77
2023-05-06T12:35:07.154Z,42.39
2023-05-06T12:37:34.096Z,42.15
2023-05-06T12:40:01.244Z,42.28
2023-05-06T12:42:28.579Z,42.56
2023-05-06T12:44:56.335Z,42.10
2023-05-06T12:47:26.272Z,41.72
2023-05-06T12:50:01.157Z,42.05
2023-05-06T12:52:30.103Z,41.76
2023-05-06T12:54:57.625Z,41.05
2023-05-06T12:57:24.462Z,41.49
2023-05-06T12:59:51.524Z,41.62
2023-05-06T13:02:18.301Z,42.80
2023-05-06T13:04:46.988Z,42.98
2023-05-06T13:07:13.826Z,43.14
2023-05-06T13:09:40.597Z,42.19
2023-05-06T13:12:13.111Z,41.60
2023-05-06T13:14:40.422Z,41.46
2023-05-06T13:17:08.161Z,42.23
2023-05-06T13:19:35.164Z,41.41
2023-05-06T13:22:02.207Z,42.08
2023-05-06T13:24:29.524Z,41.80
2023-05-06T13:26:57.323Z,42.31
2023-05-06T13:29:25.027Z,41.99
2023-05-06T13:31:52.542Z,41.90
2023-05-06T13:34:19.743Z,42.21
2023-05-06T13:36:49.156Z,42.49
2023-05-06T13:39:16.132Z,41.54
2023-05-06T13:41:45.689Z,41.32
2023-05-06T13:44:12.327Z,41.90
2023-05-06T13:46:39.088Z,41.47
2023-05-06T13:49:05.852Z,41.54
2023-05-06T13:51:34.442Z,41.57
2023-05-06T13:54:02.220Z,41.74
2023-05-06T13:56:28.924Z,40.40
2023-05-06T13:58:55.758Z,40.79
2023-05-06T14:01:25.564Z,40.35
2023-05-06T14:03:53.082Z,41.14
2023-05-06T14:06:20.348Z,40.33
2023-05-06T14:08:47.129Z,40.44
2023-05-06T14:11:13.806Z,40.71
2023-05-06T14:13:40.961Z,40.20
2023-05-06T14:16:08.017Z,39.57
2023-05-06T14:18:34.759Z,40.43
2023-05-06T14:21:01.605Z,39.62
2023-05-06T14:23:28.346Z,40.54
2023-05-06T14:25:55.186Z,40.00
2023-05-06T14:28:22.065Z,38.61
2023-05-06T14:30:50.760Z,39.00
2023-05-06T14:33:17.484Z,38.63
2023-05-06T14:35:45.926Z,39.98
2023-05-06T14:38:12.963Z,39.59
2023-05-06T14:40:39.817Z,37.81
2023-05-06T14:43:07.648Z,38.51
2023-05-06T14:45:34.634Z,37.54
2023-05-06T14:48:01.592Z,35.71
2023-05-06T14:50:28.604Z,33.50
2023-05-06T14:52:55.358Z,32.88
2023-05-06T14:55:22.324Z,30.98
2023-05-06T14:57:49.357Z,28.83
2023-05-06T15:00:17.199Z,28.20
2023-05-06T15:02:43.999Z,27.18
2023-05-06T15:05:12.189Z,26.38
2023-05-06T15:07:39.340Z,25.86
2023-05-06T15:10:06.370Z,26.84
2023-05-06T15:12:36.275Z,26.06
2023-05-06T15:15:04.877Z,27.31
2023-05-06T15:17:33.701Z,26.89
2023-05-06T15:20:00.731Z,25.79
2023-05-06T15:22:27.431Z,25.30
2023-05-06T15:24:54.183Z,23.63
2023-05-06T15:27:21.092Z,24.00
2023-05-06T15:29:47.927Z,25.92
2023-05-06T15:32:14.914Z,25.65
2023-05-06T15:34:41.572Z,26.39
2023-05-06T15:37:08.279Z,29.34
2023-05-06T15:39:38.541Z,29.56
2023-05-06T15:42:05.559Z,29.01
2023-05-06T15:44:33.606Z,31.08
2023-05-06T15:47:00.814Z,30.85
2023-05-06T15:52:00.559Z,33.99
2023-05-06T15:54:28.484Z,32.62
2023-05-06T15:56:56.245Z,32.95
2023-05-06T15:59:22.978Z,33.38
2023-05-06T16:04:19.461Z,34.78
2023-05-06T16:06:46.294Z,35.07
2023-05-06T16:09:13.326Z,36.27
2023-05-06T16:11:39.977Z,34.78
2023-05-06T16:14:06.660Z,35.60
2023-05-06T16:16:33.368Z,34.74
2023-05-06T16:19:00.290Z,34.93
2023-05-06T16:21:27.153Z,35.30
2023-05-06T16:23:54.244Z,35.52
2023-05-06T16:26:22.326Z,34.89
2023-05-06T16:28:51.372Z,34.76
2023-05-06T16:31:18.222Z,34.93
2023-05-06T16:33:44.940Z,34.67
2023-05-06T16:36:12.503Z,34.61
2023-05-06T16:38:39.823Z,33.07
2023-05-06T16:41:07.065Z,33.45
2023-05-06T16:43:33.720Z,35.17
2023-05-06T16:46:00.658Z,35.74
2023-05-06T16:48:28.032Z,35.94
2023-05-06T16:50:58.838Z,33.36
2023-05-06T16:53:27.707Z,34.65
2023-05-06T16:55:54.540Z,33.20
2023-05-06T16:58:21.957Z,33.03
2023-05-06T17:00:49.100Z,35.93
2023-05-06T17:03:17.633Z,34.97
2023-05-06T17:05:44.584Z,35.19
2023-05-06T17:08:12.027Z,33.99
2023-05-06T17:10:38.864Z,33.98
2023-05-06T17:13:06.096Z,36.04
2023-05-06T17:15:33.135Z,36.22
2023-05-06T17:18:01.397Z,35.66
2023-05-06T17:20:30.368Z,35.35
2023-05-06T17:22:58.201Z,34.37
2023-05-06T17:25:25.125Z,35.21
2023-05-06T17:27:52.132Z,36.38
2023-05-06T17:30:20.790Z,36.77
2023-05-06T17:32:47.602Z,38.30
2023-05-06T17:35:14.331Z,38.59
2023-05-06T17:37:41.190Z,39.59
2023-05-06T17:40:08.681Z,40.15
2023-05-06T17:42:35.545Z,40.17
2023-05-06T17:45:02.473Z,40.61
2023-05-06T17:47:32.924Z,41.37
2023-05-06T17:50:00.594Z,41.01
2023-05-06T17:52:27.431Z,40.81
2023-05-06T17:55:06.227Z,40.89
2023-05-06T17:57:38.245Z,41.35
2023-05-06T18:00:07.232Z,41.59
2023-05-06T18:02:39.090Z,42.19
2023-05-06T18:05:06.465Z,42.50
2023-05-06T18:07:35.040Z,42.89
2023-05-06T18:10:01.997Z,43.08
2023-05-06T18:12:32.113Z,42.93
2023-05-06T18:14:58.960Z,42.86
2023-05-06T18:17:25.726Z,43.29
2023-05-06T18:19:52.789Z,43.70
2023-05-06T18:22:19.754Z,43.77
2023-05-06T18:24:46.885Z,43.52
2023-05-06T18:27:14.256Z,44.11
2023-05-06T18:29:41.437Z,43.96
2023-05-06T18:32:08.783Z,44.48
2023-05-06T18:34:37.360Z,44.83
2023-05-06T18:37:04.689Z,44.83
2023-05-06T18:39:31.966Z,45.31
2023-05-06T18:41:59.207Z,45.31
2023-05-06T18:44:26.759Z,45.78
2023-05-06T18:46:53.449Z,46.12
2023-05-06T18:49:20.167Z,46.28
2023-05-06T18:51:46.792Z,46.46
2023-05-06T18:54:14.986Z,46.61
2023-05-06T18:56:43.640Z,46.88
2023-05-06T18:59:10.409Z,47.15
2023-05-06T19:01:37.329Z,47.19
2023-05-06T19:04:04.657Z,47.22
2023-05-06T19:06:34.582Z,47.22
2023-05-06T19:09:01.390Z,47.76
2023-05-06T19:11:28.126Z,47.85
2023-05-06T19:13:54.927Z,48.15
2023-05-06T19:16:21.908Z,48.21
2023-05-06T19:18:48.923Z,48.92
2023-05-06T19:21:15.847Z,48.81
2023-05-06T19:23:42.486Z,49.20
2023-05-06T19:26:11.203Z,49.10
2023-05-06T19:28:40.353Z,49.13
2023-05-06T19:31:10.718Z,49.08
2023-05-06T19:33:38.823Z,49.31
2023-05-06T19:36:06.611Z,49.53
2023-05-06T19:38:33.924Z,49.74
2023-05-06T19:41:01.084Z,49.86
2023-05-06T19:43:27.973Z,50.11
2023-05-06T19:45:54.753Z,49.87
2023-05-06T19:48:23.493Z,50.31
2023-05-06T19:50:51.778Z,50.26
2023-05-06T19:53:18.544Z,50.10
2023-05-06T19:55:45.774Z,50.47
2023-05-06T19:58:14.071Z,50.64
2023-05-06T20:00:40.887Z,50.45
2023-05-06T20:03:08.454Z,50.78
2023-05-06T20:05:35.454Z,50.80
2023-05-06T20:08:02.252Z,51.12
2023-05-06T20:10:29.255Z,51.03
2023-05-06T20:12:57.816Z,51.30
2023-05-06T20:15:26.818Z,51.11
2023-05-06T20:17:53.977Z,51.08
2023-05-06T20:20:21.327Z,51.55
2023-05-06T20:22:48.081Z,51.67
2023-05-06T20:25:17.306Z,51.32
2023-05-06T20:27:45.269Z,51.41
2023-05-06T20:30:12.534Z,51.38
2023-05-06T20:32:40.263Z,51.38
2023-05-06T20:35:07.764Z,51.09
2023-05-06T20:37:35.403Z,51.02
2023-05-06T20:40:04.754Z,51.25
2023-05-06T20:42:32.339Z,51.36
2023-05-06T20:45:00.188Z,51.08
2023-05-06T20:47:27.409Z,51.81
2023-05-06T20:49:55.638Z,51.87
2023-05-06T20:52:22.418Z,52.06
2023-05-06T20:54:49.493Z,51.96
2023-05-06T20:57:17.454Z,52.67
2023-05-06T20:59:44.403Z,52.60
2023-05-06T21:02:11.422Z,52.80
2023-05-06T21:04:38.357Z,52.97
2023-05-06T21:07:05.089Z,53.38
2023-05-06T21:09:31.803Z,53.38
2023-05-06T21:11:59.367Z,53.67
2023-05-06T21:14:27.601Z,53.62
2023-05-06T21:16:54.333Z,53.78
2023-05-06T21:19:21.160Z,53.59
2023-05-06T21:21:48.255Z,53.98
2023-05-06T21:24:15.455Z,54.04
2023-05-06T21:26:42.295Z,54.18
2023-05-06T21:29:09.103Z,54.13
2023-05-06T21:31:36.224Z,53.97
2023-05-06T21:34:07.265Z,54.34
2023-05-06T21:36:35.622Z,54.09
2023-05-06T21:39:08.135Z,54.09
2023-05-06T21:41:35.990Z,54.01
2023-05-06T21:44:04.110Z,53.87
2023-05-06T21:46:31.728Z,54.31
2023-05-06T21:48:59.175Z,54.21
2023-05-06T21:51:32.268Z,54.00
2023-05-06T21:53:59.283Z,54.73
2023-05-06T21:56:26.405Z,54.92
2023-05-06T21:58:55.737Z,55.07
2023-05-06T22:01:26.079Z,55.19
2023-05-06T22:03:53.931Z,55.51
2023-05-06T22:06:21.646Z,56.08
2023-05-06T22:08:48.439Z,56.37
2023-05-06T22:11:15.166Z,56.55
2023-05-06T22:13:42.361Z,56.42
2023-05-06T22:16:12.025Z,56.36
2023-05-06T22:18:41.239Z,56.45
2023-05-06T22:21:09.446Z,56.23
2023-05-06T22:23:36.345Z,56.92
2023-05-06T22:26:03.569Z,56.96
2023-05-06T22:28:30.628Z,56.27
2023-05-06T22:30:57.308Z,56.42
2023-05-06T22:33:25.690Z,56.89
2023-05-06T22:35:52.510Z,56.65
2023-05-06T22:38:19.192Z,56.49
2023-05-06T22:40:45.847Z,56.58
2023-05-06T22:43:12.567Z,56.54
2023-05-06T22:45:39.302Z,56.85
2023-05-06T22:48:06.265Z,57.26
2023-05-06T22:50:33.122Z,57.06
2023-05-06T22:53:04.916Z,57.21
2023-05-06T22:55:38.381Z,57.14
2023-05-06T22:58:05.185Z,57.59
2023-05-06T23:00:32.372Z,57.69
2023-05-06T23:02:59.098Z,57.70
2023-05-06T23:05:26.109Z,57.81
2023-05-06T23:07:52.789Z,57.57
2023-05-06T23:10:19.668Z,57.53
2023-05-06T23:12:48.348Z,57.83
2023-05-06T23:15:15.379Z,57.96
2023-05-06T23:17:42.312Z,58.04
2023-05-06T23:20:09.382Z,58.63
2023-05-06T23:22:36.201Z,58.78
2023-05-06T23:25:02.859Z,58.88
2023-05-06T23:27:31.394Z,59.03
2023-05-06T23:29:58.185Z,59.49
2023-05-06T23:32:24.911Z,58.95
2023-05-06T23:34:52.812Z,59.24
2023-05-06T23:37:19.747Z,59.30
2023-05-06T23:39:47.546Z,59.58
2023-05-06T23:42:14.266Z,59.56
2023-05-06T23:44:40.995Z,59.65
2023-05-06T23:47:07.697Z,58.94
2023-05-06T23:49:35.457Z,59.20
2023-05-06T23:52:02.246Z,59.31
2023-05-06T23:54:29.516Z,59.55
2023-05-06T23:56:56.354Z,60.10
2023-05-06T23:59:23.056Z,60.74
